Time;durP1;ratioP1;P1;durP2;ratioP2;P2;SDS_P1;SDS_P2;PMS_P1;PMS_P2;Temp;Humidity;BMP_temperature;BMP_pressure;BME280_temperature;BME280_humidity;BME280_pressure;Samples;Min_cycle;Max_cycle;Signal;HPM_P1;HPM_P2
2022/03/06 00:01:32;;;;;;;0.30;0.20;;;;;;;6.54;100.00;94988.88;5136372;27;20485;-56
2022/03/06 00:04:01;;;;;;;0.40;0.40;;;;;;;6.39;100.00;94989.53;5136412;27;20458;-56
2022/03/06 00:06:29;;;;;;;0.30;0.20;;;;;;;6.61;100.00;94989.44;5136476;27;20479;-56
2022/03/06 00:08:59;;;;;;;0.40;0.30;;;;;;;6.29;100.00;94986.84;5136740;27;20818;-56
2022/03/06 00:11:27;;;;;;;1.10;0.37;;;;;;;6.22;100.00;94980.94;5136577;27;20471;-56
2022/03/06 00:13:56;;;;;;;0.30;0.20;;;;;;;6.07;100.00;94982.69;5136398;27;20422;-56
2022/03/06 00:16:24;;;;;;;1.13;1.13;;;;;;;6.03;100.00;94979.75;5136150;27;20418;-56
2022/03/06 00:18:53;;;;;;;0.30;0.20;;;;;;;6.39;100.00;94978.22;5136366;27;20431;-56
2022/03/06 00:21:21;;;;;;;0.30;0.20;;;;;;;6.54;100.00;94969.63;5135784;27;20418;-56
2022/03/06 00:23:49;;;;;;;0.30;0.20;;;;;;;6.56;100.00;94968.34;5136201;27;20501;-56
2022/03/06 00:26:19;;;;;;;0.50;0.50;;;;;;;6.42;100.00;94969.81;5136191;27;20451;-56
2022/03/06 00:28:48;;;;;;;0.50;0.30;;;;;;;6.71;100.00;94972.91;5136355;27;20495;-56
2022/03/06 00:31:16;;;;;;;0.40;0.40;;;;;;;6.60;100.00;94972.06;5136060;27;20805;-56
2022/03/06 00:33:44;;;;;;;0.30;0.20;;;;;;;6.53;100.00;94963.56;5135758;27;20462;-56
2022/03/06 00:36:13;;;;;;;0.30;0.27;;;;;;;6.71;100.00;94967.66;5134871;27;20478;-55
2022/03/06 00:38:41;;;;;;;0.30;0.20;;;;;;;6.76;100.00;94970.31;5135090;27;20450;-55
2022/03/06 00:41:11;;;;;;;2.77;2.57;;;;;;;6.87;100.00;94969.34;5135590;27;20462;-55
2022/03/06 00:43:41;;;;;;;0.50;0.50;;;;;;;6.61;100.00;94970.22;5135761;27;20501;-55
2022/03/06 00:46:10;;;;;;;3.50;0.60;;;;;;;6.52;100.00;94945.41;5135780;27;20451;-56
2022/03/06 00:48:38;;;;;;;0.30;0.20;;;;;;;6.55;100.00;94942.28;5135437;27;20458;-55
2022/03/06 00:51:07;;;;;;;0.30;0.20;;;;;;;6.52;100.00;94945.41;5135413;27;21166;-55
2022/03/06 00:53:35;;;;;;;0.30;0.20;;;;;;;6.51;100.00;94949.06;5135379;27;20513;-55
2022/03/06 00:56:04;;;;;;;0.50;0.27;;;;;;;6.33;100.00;94961.59;5135318;27;20945;-55
2022/03/06 00:58:32;;;;;;;0.40;0.40;;;;;;;6.31;100.00;94947.09;5135636;27;20465;-55
2022/03/06 01:01:02;;;;;;;0.33;0.27;;;;;;;6.34;100.00;94955.28;5135358;27;20923;-55
2022/03/06 01:03:31;;;;;;;0.40;0.30;;;;;;;6.00;100.00;94948.66;5135410;27;20423;-55
2022/03/06 01:06:00;;;;;;;0.30;0.20;;;;;;;6.08;100.00;94948.22;5135543;27;20459;-56
2022/03/06 01:08:28;;;;;;;0.30;0.20;;;;;;;5.93;100.00;94948.06;5135076;27;20528;-55
2022/03/06 01:10:57;;;;;;;0.50;0.47;;;;;;;5.86;100.00;94941.44;5135388;27;20467;-55
2022/03/06 01:13:25;;;;;;;0.47;0.40;;;;;;;5.45;100.00;94942.81;5134801;27;20477;-56
2022/03/06 01:15:53;;;;;;;0.40;0.30;;;;;;;5.23;100.00;94942.84;5134925;27;21012;-55
2022/03/06 01:18:24;;;;;;;0.30;0.20;;;;;;;5.47;100.00;94951.25;5135174;27;20505;-55
2022/03/06 01:20:52;;;;;;;5.63;0.53;;;;;;;5.48;100.00;94942.31;5134878;27;20536;-55
2022/03/06 01:23:21;;;;;;;0.73;0.40;;;;;;;5.47;100.00;94940.72;5134977;27;20504;-55
2022/03/06 01:25:49;;;;;;;0.50;0.50;;;;;;;5.58;100.00;94934.56;5135281;27;20547;-55
2022/03/06 01:28:18;;;;;;;0.30;0.20;;;;;;;5.43;100.00;94929.94;5134629;27;20431;-56
2022/03/06 01:30:49;;;;;;;0.43;0.40;;;;;;;5.38;100.00;94927.25;5134770;27;20475;-55
2022/03/06 01:33:17;;;;;;;0.73;0.73;;;;;;;5.84;100.00;94925.88;5134523;27;20427;-55
2022/03/06 01:35:47;;;;;;;0.30;0.20;;;;;;;5.95;100.00;94921.50;5134568;27;20487;-55
2022/03/06 01:38:15;;;;;;;0.30;0.20;;;;;;;5.82;100.00;94916.66;5134202;27;20418;-55
2022/03/06 01:40:44;;;;;;;0.30;0.20;;;;;;;5.78;100.00;94918.97;5134385;27;20813;-55
2022/03/06 01:43:12;;;;;;;0.60;0.60;;;;;;;5.89;100.00;94910.19;5134270;27;20435;-56
2022/03/06 01:45:41;;;;;;;0.30;0.20;;;;;;;5.71;100.00;94916.56;5134280;27;20515;-55
2022/03/06 01:48:10;;;;;;;0.70;0.40;;;;;;;5.75;100.00;94911.59;5134047;27;20430;-56
2022/03/06 01:50:39;;;;;;;0.30;0.20;;;;;;;5.22;100.00;94815.13;5134606;27;20451;-56
2022/03/06 01:53:12;;;;;;;3.33;0.73;;;;;;;5.95;100.00;94905.72;5133939;27;20426;-56
2022/03/06 01:55:42;;;;;;;0.40;0.20;;;;;;;6.28;100.00;94906.28;5134136;27;20455;-55
2022/03/06 01:58:12;;;;;;;0.30;0.20;;;;;;;6.33;100.00;94911.59;5134292;27;20492;-56
2022/03/06 02:00:44;;;;;;;0.30;0.20;;;;;;;6.45;100.00;94911.41;5134099;27;20422;-56
2022/03/06 02:03:14;;;;;;;0.40;0.30;;;;;;;6.49;100.00;94909.06;5134040;27;20423;-56
2022/03/06 02:05:42;;;;;;;0.30;0.30;;;;;;;6.39;100.00;94907.94;5133910;27;20462;-56
2022/03/06 02:08:12;;;;;;;0.50;0.50;;;;;;;6.05;100.00;94904.00;5133780;27;20893;-56
2022/03/06 02:10:41;;;;;;;0.30;0.20;;;;;;;6.12;100.00;94901.16;5133991;27;20481;-56
2022/03/06 02:13:10;;;;;;;0.30;0.20;;;;;;;6.16;100.00;94910.94;5133695;27;20462;-56
2022/03/06 02:15:39;;;;;;;0.60;0.60;;;;;;;6.21;100.00;94910.97;5134002;27;20954;-56
2022/03/06 02:18:07;;;;;;;0.30;0.20;;;;;;;6.46;100.00;94909.56;5133845;27;20837;-56
2022/03/06 02:20:37;;;;;;;0.50;0.50;;;;;;;6.36;100.00;94908.44;5133716;27;20478;-56
2022/03/06 02:23:07;;;;;;;0.30;0.20;;;;;;;6.22;100.00;94909.13;5133418;27;20541;-56
2022/03/06 02:25:37;;;;;;;0.40;0.30;;;;;;;6.34;100.00;94907.91;5133769;27;20861;-56
2022/03/06 02:28:08;;;;;;;0.30;0.20;;;;;;;6.24;100.00;94909.66;5133678;27;20419;-56
2022/03/06 02:30:40;;;;;;;0.40;0.20;;;;;;;6.12;100.00;94912.47;5133339;27;20427;-56
2022/03/06 02:33:10;;;;;;;0.30;0.20;;;;;;;6.18;100.00;94905.41;5133590;27;20484;-56
2022/03/06 02:35:39;;;;;;;0.30;0.20;;;;;;;5.98;100.00;94908.66;5133610;27;20426;-56
2022/03/06 02:38:09;;;;;;;0.30;0.20;;;;;;;5.69;100.00;94916.00;5133562;27;20458;-56
2022/03/06 02:40:39;;;;;;;0.30;0.20;;;;;;;5.68;100.00;94917.06;5133677;27;20469;-56
2022/03/06 02:43:08;;;;;;;0.30;0.20;;;;;;;5.77;100.00;94922.63;5133261;27;20470;-56
2022/03/06 02:45:38;;;;;;;0.30;0.20;;;;;;;5.45;100.00;94916.53;5133467;27;20534;-55
2022/03/06 02:48:08;;;;;;;0.30;0.20;;;;;;;5.54;100.00;94917.69;5133434;27;20429;-55
2022/03/06 02:50:38;;;;;;;0.50;0.33;;;;;;;5.94;100.00;94919.94;5133373;27;20460;-56
2022/03/06 02:53:09;;;;;;;0.30;0.20;;;;;;;6.13;100.00;94914.06;5133286;27;20635;-56
2022/03/06 02:55:38;;;;;;;0.53;0.53;;;;;;;6.27;100.00;94915.22;5133129;27;20414;-56
2022/03/06 02:58:07;;;;;;;0.30;0.20;;;;;;;5.98;100.00;94907.88;5132639;27;20437;-56
2022/03/06 03:00:35;;;;;;;0.30;0.20;;;;;;;6.23;100.00;94915.97;5132739;27;20461;-56
2022/03/06 03:03:04;;;;;;;0.30;0.20;;;;;;;6.36;100.00;94920.81;5133226;27;20802;-56
2022/03/06 03:05:33;;;;;;;0.30;0.30;;;;;;;6.28;100.00;94918.63;5132663;27;20514;-56
2022/03/06 03:08:01;;;;;;;0.40;0.30;;;;;;;6.37;100.00;94922.41;5132850;27;20513;-56
2022/03/06 03:10:31;;;;;;;0.47;0.47;;;;;;;6.12;100.00;94909.06;5132853;27;20461;-56
2022/03/06 03:12:59;;;;;;;0.30;0.20;;;;;;;6.11;100.00;94910.88;5133082;27;20877;-56
2022/03/06 03:15:46;;;;;;;0.50;0.50;;;;;;;6.24;100.00;94910.47;5132891;27;20822;-56
2022/03/06 03:18:14;;;;;;;0.37;0.30;;;;;;;5.89;100.00;94912.81;5133081;27;20798;-56
2022/03/06 03:20:42;;;;;;;0.30;0.20;;;;;;;5.91;100.00;94913.34;5132728;27;20422;-55
2022/03/06 03:23:11;;;;;;;0.83;0.83;;;;;;;5.81;100.00;94912.44;5132686;28;20492;-56
2022/03/06 03:25:41;;;;;;;0.53;0.53;;;;;;;5.59;100.00;94905.38;5132633;27;20513;-56
2022/03/06 03:28:09;;;;;;;0.30;0.20;;;;;;;5.70;100.00;94920.22;5132184;28;20458;-56
2022/03/06 03:30:37;;;;;;;0.30;0.20;;;;;;;5.86;100.00;94917.75;5132952;27;20501;-56
2022/03/06 03:33:06;;;;;;;0.30;0.20;;;;;;;5.83;100.00;94913.75;5132645;28;20541;-56
2022/03/06 03:35:34;;;;;;;0.30;0.20;;;;;;;6.06;100.00;94918.75;5132564;28;20547;-56
2022/03/06 03:38:03;;;;;;;0.30;0.20;;;;;;;5.47;100.00;94930.22;5132644;28;20497;-56
2022/03/06 03:40:31;;;;;;;2.83;0.50;;;;;;;4.86;100.00;94902.44;5132545;28;21009;-56
2022/03/06 03:43:01;;;;;;;0.30;0.30;;;;;;;5.59;100.00;94931.66;5132483;27;20473;-56
2022/03/06 03:45:30;;;;;;;0.30;0.20;;;;;;;5.71;100.00;94921.03;5132218;28;20470;-56
2022/03/06 03:47:58;;;;;;;0.30;0.20;;;;;;;5.65;100.00;94929.88;5132445;28;20473;-55
2022/03/06 03:50:26;;;;;;;0.30;0.23;;;;;;;5.76;100.00;94937.66;5132314;28;20932;-56
2022/03/06 03:52:55;;;;;;;0.30;0.20;;;;;;;5.59;100.00;94928.25;5132853;27;20449;-56
2022/03/06 03:55:23;;;;;;;0.30;0.20;;;;;;;5.32;100.00;94938.72;5132640;28;20462;-56
2022/03/06 03:57:52;;;;;;;0.40;0.30;;;;;;;5.78;100.00;94934.75;5132324;28;20462;-56
2022/03/06 04:00:22;;;;;;;0.30;0.20;;;;;;;5.61;100.00;94916.47;5132055;28;20462;-55
2022/03/06 04:02:50;;;;;;;0.40;0.40;;;;;;;5.63;100.00;94926.72;5132179;28;20894;-55
2022/03/06 04:05:18;;;;;;;0.30;0.20;;;;;;;5.54;100.00;94923.72;5132524;27;20477;-56
2022/03/06 04:07:47;;;;;;;1.23;1.23;;;;;;;5.64;100.00;94923.06;5131619;28;20434;-55
2022/03/06 04:10:15;;;;;;;0.30;0.20;;;;;;;5.50;100.00;94929.72;5133533;27;20525;-56
2022/03/06 04:12:44;;;;;;;0.40;0.40;;;;;;;5.11;100.00;94931.63;5136150;27;20427;-56
2022/03/06 04:15:12;;;;;;;0.40;0.40;;;;;;;5.12;100.00;94936.66;5135681;27;20533;-56
2022/03/06 04:17:42;;;;;;;0.30;0.20;;;;;;;5.04;100.00;94933.66;5136228;27;20446;-56
2022/03/06 04:20:11;;;;;;;0.30;0.20;;;;;;;5.03;100.00;94932.84;5135878;27;20522;-55
2022/03/06 04:22:39;;;;;;;0.30;0.20;;;;;;;4.53;100.00;94835.09;5136002;27;20523;-56
2022/03/06 04:25:08;;;;;;;0.30;0.20;;;;;;;5.28;100.00;94915.81;5135767;27;20954;-56
2022/03/06 04:27:36;;;;;;;0.37;0.37;;;;;;;5.05;100.00;94930.81;5135905;27;20505;-56
2022/03/06 04:30:06;;;;;;;0.30;0.20;;;;;;;5.19;100.00;94925.97;5136096;27;20970;-56
2022/03/06 04:32:34;;;;;;;0.40;0.30;;;;;;;5.01;100.00;94940.19;5135488;27;20465;-56
2022/03/06 04:35:06;;;;;;;0.30;0.20;;;;;;;4.52;100.00;94874.69;5135561;27;20530;-55
2022/03/06 04:37:35;;;;;;;0.30;0.20;;;;;;;5.05;100.00;94922.91;5135506;27;20468;-56
2022/03/06 04:40:04;;;;;;;0.40;0.30;;;;;;;5.00;100.00;94933.38;5135765;27;20521;-56
2022/03/06 04:42:32;;;;;;;0.30;0.20;;;;;;;5.08;100.00;94935.53;5135859;27;20468;-55
2022/03/06 04:45:01;;;;;;;0.50;0.40;;;;;;;4.64;100.00;94933.91;5135285;27;20426;-55
2022/03/06 04:47:29;;;;;;;0.40;0.40;;;;;;;4.78;100.00;94950.91;5135343;27;20458;-55
2022/03/06 04:49:58;;;;;;;0.50;0.50;;;;;;;4.73;100.00;94926.44;5135017;27;20927;-56
2022/03/06 04:52:28;;;;;;;0.30;0.20;;;;;;;4.76;100.00;94939.06;5135469;27;20792;-56
2022/03/06 04:54:56;;;;;;;0.30;0.20;;;;;;;4.95;100.00;94933.31;5135554;27;20428;-55
2022/03/06 04:57:24;;;;;;;0.30;0.20;;;;;;;5.05;100.00;94937.88;5134988;27;20587;-55
2022/03/06 04:59:53;;;;;;;0.30;0.20;;;;;;;5.18;100.00;94934.09;5135296;27;20988;-56
2022/03/06 05:02:21;;;;;;;0.83;0.70;;;;;;;5.10;100.00;94936.13;5135172;27;20791;-55
2022/03/06 05:04:50;;;;;;;0.30;0.20;;;;;;;4.73;100.00;94942.19;5135191;27;20457;-55
2022/03/06 05:07:19;;;;;;;0.30;0.20;;;;;;;5.06;100.00;94940.25;5135069;27;20502;-55
2022/03/06 05:09:49;;;;;;;0.40;0.23;;;;;;;5.13;100.00;94946.13;5135109;27;20518;-56
2022/03/06 05:12:17;;;;;;;0.30;0.20;;;;;;;4.94;100.00;94947.44;5135072;27;20458;-56
2022/03/06 05:14:45;;;;;;;0.60;0.60;;;;;;;5.01;100.00;94939.38;5135394;27;20522;-56
2022/03/06 05:17:15;;;;;;;0.40;0.30;;;;;;;4.57;100.00;94925.44;5134918;27;21022;-56
2022/03/06 05:19:44;;;;;;;0.30;0.20;;;;;;;4.89;100.00;94952.63;5134402;27;20427;-56
2022/03/06 05:22:12;;;;;;;0.30;0.20;;;;;;;5.03;100.00;94945.97;5133820;27;20474;-56
2022/03/06 05:24:41;;;;;;;0.70;0.60;;;;;;;4.97;100.00;94946.97;5135041;27;20855;-56
2022/03/06 05:27:10;;;;;;;0.30;0.20;;;;;;;4.72;100.00;94948.47;5134522;27;20962;-55
2022/03/06 05:29:39;;;;;;;1.13;0.40;;;;;;;4.67;100.00;94954.44;5134806;27;20501;-56
2022/03/06 05:32:08;;;;;;;0.30;0.20;;;;;;;4.91;100.00;94945.31;5134441;27;20951;-56
2022/03/06 05:34:36;;;;;;;0.40;0.20;;;;;;;5.18;100.00;94952.47;5134821;27;20485;-56
2022/03/06 05:37:05;;;;;;;0.30;0.20;;;;;;;5.01;100.00;94937.56;5134494;27;20435;-56
2022/03/06 05:39:33;;;;;;;1.33;1.23;;;;;;;4.85;100.00;94938.41;5134831;27;20447;-56
2022/03/06 05:42:02;;;;;;;0.30;0.20;;;;;;;5.00;100.00;94961.44;5134404;27;20422;-56
2022/03/06 05:44:32;;;;;;;0.83;0.67;;;;;;;4.84;100.00;94947.31;5134309;27;20453;-57
2022/03/06 05:47:00;;;;;;;0.30;0.20;;;;;;;4.96;100.00;94950.63;5134242;27;20490;-56
2022/03/06 05:49:29;;;;;;;0.30;0.23;;;;;;;5.03;100.00;94951.22;5134581;27;20423;-56
2022/03/06 05:51:57;;;;;;;0.30;0.23;;;;;;;5.02;100.00;94960.16;5134282;27;20517;-56
2022/03/06 05:54:25;;;;;;;0.30;0.20;;;;;;;4.91;100.00;94957.63;5134198;27;20510;-56
2022/03/06 05:56:54;;;;;;;2.17;2.10;;;;;;;5.04;100.00;94965.16;5134526;27;20430;-56
2022/03/06 05:59:22;;;;;;;1.60;1.17;;;;;;;4.66;100.00;94949.41;5134099;27;20910;-56
2022/03/06 06:01:52;;;;;;;0.43;0.40;;;;;;;4.76;100.00;94966.09;5134038;27;20460;-56
2022/03/06 06:04:21;;;;;;;0.80;0.80;;;;;;;4.89;100.00;94962.34;5133767;27;20430;-56
2022/03/06 06:06:49;;;;;;;1.53;1.43;;;;;;;4.64;100.00;94962.00;5133756;27;21026;-56
2022/03/06 06:09:18;;;;;;;1.07;1.07;;;;;;;4.35;100.00;94964.72;5134102;27;20525;-56
2022/03/06 06:11:46;;;;;;;1.63;1.53;;;;;;;4.25;100.00;94963.78;5133803;27;20446;-56
2022/03/06 06:14:14;;;;;;;2.40;0.80;;;;;;;4.20;100.00;94961.84;5133820;27;20450;-56
2022/03/06 06:16:47;;;;;;;4.33;0.93;;;;;;;4.25;100.00;94971.66;5134108;27;20458;-56
2022/03/06 06:19:17;;;;;;;0.53;0.53;;;;;;;4.43;100.00;94971.38;5134128;27;20418;-56
2022/03/06 06:21:46;;;;;;;0.60;0.60;;;;;;;4.44;100.00;94972.97;5133546;27;20501;-55
2022/03/06 06:24:15;;;;;;;0.30;0.20;;;;;;;4.26;100.00;94971.41;5133650;27;20414;-56
2022/03/06 06:26:45;;;;;;;0.43;0.30;;;;;;;4.40;100.00;94979.75;5133435;27;20512;-56
2022/03/06 06:29:14;;;;;;;0.30;0.20;;;;;;;4.36;100.00;94961.06;5133933;27;20419;-56
2022/03/06 06:31:42;;;;;;;0.30;0.20;;;;;;;4.06;100.00;94894.22;5133245;27;20431;-56
2022/03/06 06:34:12;;;;;;;0.37;0.30;;;;;;;4.23;100.00;94952.69;5132716;27;20487;-56
2022/03/06 06:36:42;;;;;;;0.30;0.20;;;;;;;4.44;100.00;94972.97;5133615;27;20442;-56
2022/03/06 06:39:11;;;;;;;0.70;0.70;;;;;;;4.66;100.00;94984.34;5133147;27;20510;-56
2022/03/06 06:41:39;;;;;;;1.53;1.43;;;;;;;4.58;100.00;94986.59;5133260;27;20458;-57
2022/03/06 06:44:09;;;;;;;0.37;0.33;;;;;;;4.66;100.00;94980.91;5133551;27;20487;-56
2022/03/06 06:46:38;;;;;;;0.30;0.20;;;;;;;4.79;100.00;94980.56;5133482;27;20454;-56
2022/03/06 06:49:06;;;;;;;0.67;0.67;;;;;;;4.57;100.00;94977.09;5132772;27;20502;-56
2022/03/06 06:51:35;;;;;;;0.87;0.40;;;;;;;4.62;100.00;94987.69;5133456;27;20447;-56
2022/03/06 06:54:04;;;;;;;0.30;0.30;;;;;;;5.01;100.00;94976.94;5133454;27;20445;-56
2022/03/06 06:56:33;;;;;;;0.30;0.20;;;;;;;5.08;100.00;94982.81;5133060;27;20788;-56
2022/03/06 06:59:01;;;;;;;1.07;1.00;;;;;;;4.66;100.00;94986.16;5133418;27;20479;-56
2022/03/06 07:01:30;;;;;;;0.70;0.60;;;;;;;4.31;100.00;94981.97;5133020;27;20997;-55
2022/03/06 07:03:59;;;;;;;0.50;0.50;;;;;;;4.41;100.00;94983.94;5133369;27;20430;-56
2022/03/06 07:06:27;;;;;;;0.30;0.20;;;;;;;4.38;100.00;94989.66;5132944;27;20892;-55
2022/03/06 07:08:55;;;;;;;0.53;0.50;;;;;;;4.14;100.00;94975.13;5132826;27;20497;-55
2022/03/06 07:11:25;;;;;;;0.40;0.40;;;;;;;4.39;100.00;94986.03;5132592;27;20427;-56
2022/03/06 07:13:54;;;;;;;0.30;0.20;;;;;;;4.87;100.00;94980.97;5132488;27;20506;-56
2022/03/06 07:16:22;;;;;;;0.40;0.40;;;;;;;4.67;100.00;94985.94;5132589;27;20455;-56
2022/03/06 07:18:51;;;;;;;0.80;0.67;;;;;;;4.59;100.00;94983.72;5133407;27;20413;-57
2022/03/06 07:21:19;;;;;;;0.50;0.40;;;;;;;4.76;100.00;94981.84;5132471;27;20461;-56
2022/03/06 07:23:47;;;;;;;0.50;0.47;;;;;;;4.60;100.00;94976.63;5132669;27;20466;-56
2022/03/06 07:26:18;;;;;;;0.50;0.50;;;;;;;4.84;100.00;94973.56;5130723;28;20915;-57
2022/03/06 07:28:48;;;;;;;0.30;0.27;;;;;;;4.93;100.00;94977.38;5130739;28;20503;-56
2022/03/06 07:31:16;;;;;;;1.37;1.37;;;;;;;4.98;100.00;94968.78;5132587;28;20491;-56
2022/03/06 07:33:45;;;;;;;0.90;0.77;;;;;;;5.03;100.00;94967.00;5132258;28;20465;-57
2022/03/06 07:36:13;;;;;;;0.93;0.93;;;;;;;4.89;100.00;94971.03;5132345;28;20428;-57
2022/03/06 07:38:42;;;;;;;2.70;0.53;;;;;;;4.95;100.00;94974.50;5130692;28;20789;-56
2022/03/06 07:41:11;;;;;;;1.23;0.30;;;;;;;5.25;100.00;94974.09;5131054;28;20505;-56
2022/03/06 07:43:39;;;;;;;2.20;0.70;;;;;;;4.44;100.00;94967.72;5131620;28;20469;-56
2022/03/06 07:46:09;;;;;;;0.30;0.30;;;;;;;4.52;100.00;94974.41;5134925;27;20778;-56
2022/03/06 07:48:37;;;;;;;0.53;0.53;;;;;;;4.37;100.00;94975.78;5135923;27;20474;-56
2022/03/06 07:51:06;;;;;;;9.07;1.60;;;;;;;4.47;100.00;94977.75;5136375;27;20449;-56
2022/03/06 07:53:34;;;;;;;0.30;0.20;;;;;;;4.75;100.00;94959.28;5136539;27;20525;-56
2022/03/06 07:56:03;;;;;;;1.17;0.77;;;;;;;4.94;100.00;94973.72;5136554;27;20458;-56
2022/03/06 07:58:31;;;;;;;0.40;0.40;;;;;;;4.75;100.00;94969.78;5136476;27;20484;-57
2022/03/06 08:01:00;;;;;;;0.40;0.30;;;;;;;4.89;100.00;94978.09;5136397;27;20415;-56
2022/03/06 08:03:30;;;;;;;0.30;0.20;;;;;;;4.41;100.00;94976.06;5136983;27;20425;-56
2022/03/06 08:05:58;;;;;;;1.33;0.90;;;;;;;4.67;100.00;94974.63;5136821;27;20422;-56
2022/03/06 08:08:27;;;;;;;0.30;0.30;;;;;;;4.90;100.00;94972.63;5136356;27;20466;-56
2022/03/06 08:10:58;;;;;;;0.30;0.20;;;;;;;4.54;100.00;94946.91;5136326;27;20514;-57
2022/03/06 08:13:26;;;;;;;1.30;0.77;;;;;;;5.04;100.00;94981.72;5136030;27;20430;-57
2022/03/06 08:15:55;;;;;;;2.60;0.60;;;;;;;5.04;100.00;94973.03;5136474;27;20427;-57
2022/03/06 08:18:23;;;;;;;0.33;0.27;;;;;;;4.69;100.00;94973.38;5136008;27;20415;-56
2022/03/06 08:20:53;;;;;;;0.40;0.30;;;;;;;5.11;100.00;94974.47;5135897;27;20472;-57
2022/03/06 08:23:22;;;;;;;0.60;0.60;;;;;;;5.08;100.00;94974.94;5135630;27;20470;-57
2022/03/06 08:25:50;;;;;;;0.30;0.20;;;;;;;4.66;100.00;94975.66;5135754;27;20479;-57
2022/03/06 08:28:18;;;;;;;0.30;0.20;;;;;;;4.67;100.00;94982.50;5135831;27;21077;-57
2022/03/06 08:30:47;;;;;;;0.40;0.40;;;;;;;4.51;100.00;94984.09;5135974;27;20495;-57
2022/03/06 08:33:15;;;;;;;2.10;2.00;;;;;;;4.60;100.00;94974.00;5135302;27;20938;-56
2022/03/06 08:35:44;;;;;;;0.30;0.20;;;;;;;4.14;100.00;94977.75;5135450;27;20445;-56
2022/03/06 08:38:18;;;;;;;1.47;0.53;;;;;;;4.37;100.00;94972.34;5135524;27;20956;-57
2022/03/06 08:40:47;;;;;;;0.30;0.20;;;;;;;4.30;100.00;94980.38;5135943;27;20438;-57
2022/03/06 08:43:16;;;;;;;0.73;0.73;;;;;;;4.24;100.00;94975.28;5135655;27;20806;-57
2022/03/06 08:45:44;;;;;;;0.40;0.30;;;;;;;3.96;100.00;94980.56;5135573;27;20414;-57
2022/03/06 08:48:14;;;;;;;0.30;0.20;;;;;;;4.27;100.00;94974.81;5135582;27;20946;-57
2022/03/06 08:50:42;;;;;;;0.30;0.20;;;;;;;4.40;100.00;94980.53;5135321;27;20993;-58
2022/03/06 08:53:13;;;;;;;0.30;0.20;;;;;;;4.73;100.00;94968.44;5135494;27;20423;-57
2022/03/06 08:55:43;;;;;;;0.30;0.20;;;;;;;4.54;100.00;94978.38;5135194;27;20462;-57
2022/03/06 08:58:11;;;;;;;1.13;1.13;;;;;;;4.86;100.00;94965.44;5134068;27;20483;-57
2022/03/06 09:00:40;;;;;;;0.67;0.57;;;;;;;5.13;100.00;94972.38;5135216;27;20484;-56
2022/03/06 09:03:09;;;;;;;0.30;0.20;;;;;;;5.07;100.00;94973.38;5135250;27;20513;-57
2022/03/06 09:05:40;;;;;;;0.50;0.40;;;;;;;5.27;100.00;94975.44;5135092;27;20425;-57
2022/03/06 09:08:10;;;;;;;0.30;0.20;;;;;;;4.97;100.00;94946.16;5135212;27;20848;-57
2022/03/06 09:10:40;;;;;;;0.63;0.60;;;;;;;5.16;100.00;94970.31;5134833;27;20469;-57
2022/03/06 09:13:10;;;;;;;0.40;0.40;;;;;;;5.01;100.00;94976.94;5134863;27;20505;-57
2022/03/06 09:15:39;;;;;;;1.43;1.20;;;;;;;4.81;100.00;94979.31;5134863;27;20427;-57
2022/03/06 09:18:07;;;;;;;0.30;0.20;;;;;;;5.25;100.00;94974.91;5134969;27;20475;-57
2022/03/06 09:20:35;;;;;;;0.30;0.20;;;;;;;5.40;100.00;94977.72;5135123;27;20494;-57
2022/03/06 09:23:05;;;;;;;0.60;0.50;;;;;;;5.18;100.00;94968.25;5134664;27;20524;-57
2022/03/06 09:25:33;;;;;;;0.30;0.27;;;;;;;5.16;100.00;94978.22;5134451;27;20938;-57
2022/03/06 09:28:02;;;;;;;1.17;0.37;;;;;;;5.60;100.00;94975.31;5134530;27;20570;-57
2022/03/06 09:30:32;;;;;;;0.40;0.40;;;;;;;5.49;100.00;94976.22;5134487;27;20980;-57
2022/03/06 09:33:01;;;;;;;0.40;0.30;;;;;;;5.46;100.00;94973.31;5134344;27;20468;-57
2022/03/06 09:35:29;;;;;;;0.40;0.27;;;;;;;5.76;100.00;94961.31;5134522;27;20422;-57
2022/03/06 09:37:58;;;;;;;0.93;0.93;;;;;;;5.77;100.00;94970.75;5134469;27;20429;-57
2022/03/06 09:40:27;;;;;;;0.30;0.20;;;;;;;4.36;100.00;94771.38;5135588;27;20476;-57
2022/03/06 09:42:55;;;;;;;0.60;0.60;;;;;;;5.57;100.00;94967.91;5134822;27;20427;-56
2022/03/06 09:45:24;;;;;;;0.50;0.50;;;;;;;5.64;100.00;94936.19;5134124;27;20426;-56
2022/03/06 09:47:58;;;;;;;0.30;0.30;;;;;;;5.47;100.00;94953.88;5134406;27;20791;-56
2022/03/06 09:50:27;;;;;;;4.50;0.60;;;;;;;5.46;100.00;94952.28;5133992;27;20414;-56
2022/03/06 09:52:56;;;;;;;2.10;2.00;;;;;;;5.97;100.00;94951.78;5134208;27;20487;-57
2022/03/06 09:55:25;;;;;;;6.43;0.60;;;;;;;5.86;100.00;94951.94;5134336;27;20419;-57
2022/03/06 09:57:54;;;;;;;0.90;0.70;;;;;;;5.42;100.00;94956.44;5134242;27;20526;-57
2022/03/06 10:00:23;;;;;;;0.40;0.23;;;;;;;6.23;100.00;94945.72;5133935;27;20459;-56
2022/03/06 10:02:58;;;;;;;7.60;1.53;;;;;;;6.28;100.00;94932.59;5134030;27;20423;-56
2022/03/06 10:05:29;;;;;;;0.60;0.50;;;;;;;6.39;100.00;94939.53;5133758;27;20418;-56
2022/03/06 10:08:15;;;;;;;0.40;0.30;;;;;;;6.59;100.00;94932.81;5133548;27;20418;-56
2022/03/06 10:10:45;;;;;;;0.30;0.30;;;;;;;5.89;100.00;94940.94;5132753;27;20538;-56
2022/03/06 10:13:33;;;;;;;0.40;0.40;;;;;;;5.83;100.00;94891.94;5133737;27;20418;-57
2022/03/06 10:16:08;;;;;;;1.13;1.13;;;;;;;5.78;100.00;94938.19;5133546;27;20480;-57
2022/03/06 10:18:40;;;;;;;0.60;0.53;;;;;;;5.88;100.00;94941.97;5133570;27;20415;-57
2022/03/06 10:21:14;;;;;;;0.93;0.93;;;;;;;5.67;100.00;94928.59;5133424;27;20489;-57
2022/03/06 10:23:43;;;;;;;0.80;0.80;;;;;;;5.72;100.00;94938.38;5133210;27;20926;-57
2022/03/06 10:26:13;;;;;;;0.30;0.30;;;;;;;5.60;100.00;94929.84;5132498;27;20974;-57
2022/03/06 10:28:47;;;;;;;0.30;0.20;;;;;;;5.79;100.00;94928.47;5133141;27;20547;-56
2022/03/06 10:31:17;;;;;;;0.30;0.20;;;;;;;5.95;100.00;94930.22;5133432;27;20503;-56
2022/03/06 10:34:14;;;;;;;0.33;0.30;;;;;;;5.92;100.00;94867.56;5133140;27;20426;-57
2022/03/06 10:36:44;;;;;;;0.53;0.53;;;;;;;6.05;100.00;94919.78;5133518;27;20442;-56
2022/03/06 10:39:15;;;;;;;0.63;0.60;;;;;;;5.99;100.00;94918.16;5133535;27;20493;-57
2022/03/06 10:41:46;;;;;;;0.60;0.40;;;;;;;5.91;100.00;94897.56;5133247;27;20426;-57
2022/03/06 10:44:16;;;;;;;0.63;0.40;;;;;;;5.76;100.00;94900.03;5133146;27;20431;-58
2022/03/06 10:46:59;;;;;;;0.30;0.20;;;;;;;6.18;100.00;94914.09;5133161;27;20458;-55
2022/03/06 10:49:30;;;;;;;3.17;0.63;;;;;;;6.11;100.00;94917.97;5133208;27;20501;-56
2022/03/06 10:52:12;;;;;;;0.30;0.30;;;;;;;5.94;100.00;94926.00;5132886;27;20899;-56
2022/03/06 10:54:49;;;;;;;0.57;0.57;;;;;;;5.38;100.00;94921.19;5132986;27;20903;-56
2022/03/06 10:57:18;;;;;;;0.40;0.40;;;;;;;5.35;100.00;94911.97;5132974;27;20898;-56
2022/03/06 10:59:49;;;;;;;0.73;0.73;;;;;;;5.79;100.00;94910.06;5133153;27;20495;-56
2022/03/06 11:02:18;;;;;;;0.60;0.60;;;;;;;5.92;100.00;94916.78;5132939;27;20458;-56
2022/03/06 11:04:53;;;;;;;0.40;0.40;;;;;;;5.88;100.00;94921.72;5132750;27;20446;-56
2022/03/06 11:07:23;;;;;;;0.37;0.33;;;;;;;5.82;100.00;94919.28;5132804;27;20894;-56
2022/03/06 11:09:54;;;;;;;0.40;0.30;;;;;;;5.91;100.00;94902.81;5133037;27;20554;-56
2022/03/06 11:12:24;;;;;;;0.30;0.20;;;;;;;5.70;100.00;94903.66;5132761;27;20458;-56
2022/03/06 11:14:53;;;;;;;0.30;0.20;;;;;;;5.43;100.00;94921.25;5132588;27;20793;-56
2022/03/06 11:17:22;;;;;;;0.40;0.30;;;;;;;5.42;100.00;94912.56;5132460;27;20509;-56
2022/03/06 11:19:52;;;;;;;0.30;0.30;;;;;;;5.81;100.00;94907.97;5132126;27;20894;-57
2022/03/06 11:22:28;;;;;;;0.30;0.20;;;;;;;5.81;100.00;94905.34;5132540;27;20502;-56
2022/03/06 11:25:03;;;;;;;0.30;0.20;;;;;;;6.13;100.00;94911.44;5132560;27;20419;-57
2022/03/06 11:27:46;;;;;;;0.43;0.43;;;;;;;5.51;100.00;94899.78;5132072;28;20459;-57
2022/03/06 11:30:20;;;;;;;0.30;0.20;;;;;;;5.99;100.00;94906.84;5132005;28;20519;-56
2022/03/06 11:33:00;;;;;;;0.30;0.20;;;;;;;5.75;100.00;94882.66;5132648;28;20422;-57
2022/03/06 11:35:35;;;;;;;0.60;0.50;;;;;;;5.54;100.00;94894.03;5132403;28;20505;-57
2022/03/06 11:38:05;;;;;;;0.77;0.77;;;;;;;5.23;100.00;94871.09;5132479;27;20454;-57
2022/03/06 11:40:40;;;;;;;2.00;1.90;;;;;;;5.49;100.00;94901.88;5132281;28;20926;-58
2022/03/06 11:43:09;;;;;;;0.40;0.40;;;;;;;5.62;100.00;94869.91;5132480;28;20887;-57
2022/03/06 11:45:54;;;;;;;0.40;0.30;;;;;;;6.12;100.00;94893.28;5132457;27;20431;-57